Aviation Digital Data Service (ADDS)

Output produced by METARs form (0333 UTC 19 July 2018)
found at http://www.aviationweather.gov/adds/metars/
 
METAR text: KOAK 190253Z 30013KT 10SM FEW010 SCT200 16/13 A2993 RMK AO2 SLP133 T01560133 56006
Conditions at: KOAK (OAKLAND , CA, US) observed 0253 UTC 19 July 2018
Temperature: 15.6°C (60°F)
Dewpoint: 13.3°C (56°F) [RH = 86%]
Pressure (altimeter): 29.93 inches Hg (1013.6 mb)
[Sea-level pressure: 1013.3 mb]
Winds: from the WNW (300 degrees) at 15 MPH (13 knots; 6.8 m/s)
Visibility: 10 or more miles (16+ km)
Ceiling: at least 12,000 feet AGL
Clouds: few clouds at 1000 feet AGL
scattered clouds at 20000 feet AGL
Weather: no significant weather observed at this time

METAR text: KOAK 190153Z 30015KT 10SM FEW010 SCT200 17/14 A2993 RMK AO2 SLP134 T01670139
Conditions at: KOAK (OAKLAND , CA, US) observed 0153 UTC 19 July 2018
Temperature: 16.7°C (62°F)
Dewpoint: 13.9°C (57°F) [RH = 84%]
Pressure (altimeter): 29.93 inches Hg (1013.6 mb)
[Sea-level pressure: 1013.4 mb]
Winds: from the WNW (300 degrees) at 17 MPH (15 knots; 7.8 m/s)
Visibility: 10 or more miles (16+ km)
Ceiling: at least 12,000 feet AGL
Clouds: few clouds at 1000 feet AGL
scattered clouds at 20000 feet AGL
Weather: no significant weather observed at this time

METAR text: KOAK 190053Z 30017KT 10SM FEW010 SCT200 18/14 A2993 RMK AO2 SLP135 T01780139
Conditions at: KOAK (OAKLAND , CA, US) observed 0053 UTC 19 July 2018
Temperature: 17.8°C (64°F)
Dewpoint: 13.9°C (57°F) [RH = 78%]
Pressure (altimeter): 29.93 inches Hg (1013.6 mb)
[Sea-level pressure: 1013.5 mb]
Winds: from the WNW (300 degrees) at 20 MPH (17 knots; 8.8 m/s)
Visibility: 10 or more miles (16+ km)
Ceiling: at least 12,000 feet AGL
Clouds: few clouds at 1000 feet AGL
scattered clouds at 20000 feet AGL
Weather: no significant weather observed at this time

METAR text: KOAK 182353Z 29017KT 10SM FEW010 BKN200 19/14 A2994 RMK AO2 SLP138 T01940139 10211 20178 56013
Conditions at: KOAK (OAKLAND , CA, US) observed 2353 UTC 18 July 2018
Temperature: 19.4°C (67°F)
Dewpoint: 13.9°C (57°F) [RH = 71%]
Pressure (altimeter): 29.94 inches Hg (1014.0 mb)
[Sea-level pressure: 1013.8 mb]
Winds: from the WNW (290 degrees) at 20 MPH (17 knots; 8.8 m/s)
Visibility: 10 or more miles (16+ km)
Ceiling: 20000 feet AGL
Clouds: few clouds at 1000 feet AGL
broken clouds at 20000 feet AGL
Weather: no significant weather observed at this time

METAR text: KOAK 182253Z 29016KT 10SM FEW010 BKN200 21/14 A2995 RMK AO2 SLP140 T02060139
Conditions at: KOAK (OAKLAND , CA, US) observed 2253 UTC 18 July 2018
Temperature: 20.6°C (69°F)
Dewpoint: 13.9°C (57°F) [RH = 65%]
Pressure (altimeter): 29.95 inches Hg (1014.3 mb)
[Sea-level pressure: 1014.0 mb]
Winds: from the WNW (290 degrees) at 18 MPH (16 knots; 8.3 m/s)
Visibility: 10 or more miles (16+ km)
Ceiling: 20000 feet AGL
Clouds: few clouds at 1000 feet AGL
broken clouds at 20000 feet AGL
Weather: no significant weather observed at this time

METAR text: KOAK 182153Z 30016KT 10SM FEW010 BKN200 21/14 A2996 RMK AO2 SLP145 T02110144
Conditions at: KOAK (OAKLAND , CA, US) observed 2153 UTC 18 July 2018
Temperature: 21.1°C (70°F)
Dewpoint: 14.4°C (58°F) [RH = 66%]
Pressure (altimeter): 29.96 inches Hg (1014.6 mb)
[Sea-level pressure: 1014.5 mb]
Winds: from the WNW (300 degrees) at 18 MPH (16 knots; 8.3 m/s)
Visibility: 10 or more miles (16+ km)
Ceiling: 20000 feet AGL
Clouds: few clouds at 1000 feet AGL
broken clouds at 20000 feet AGL
Weather: no significant weather observed at this time

METAR text: KOAK 182053Z 30016KT 10SM FEW010 BKN200 21/14 A2998 RMK AO2 SLP151 T02060139 58010
Conditions at: KOAK (OAKLAND , CA, US) observed 2053 UTC 18 July 2018
Temperature: 20.6°C (69°F)
Dewpoint: 13.9°C (57°F) [RH = 65%]
Pressure (altimeter): 29.98 inches Hg (1015.3 mb)
[Sea-level pressure: 1015.1 mb]
Winds: from the WNW (300 degrees) at 18 MPH (16 knots; 8.3 m/s)
Visibility: 10 or more miles (16+ km)
Ceiling: 20000 feet AGL
Clouds: few clouds at 1000 feet AGL
broken clouds at 20000 feet AGL
Weather: no significant weather observed at this time

METAR text: KOAK 181953Z 30013KT 10SM FEW010 SCT200 20/14 A2999 RMK AO2 SLP156 T02000144
Conditions at: KOAK (OAKLAND , CA, US) observed 1953 UTC 18 July 2018
Temperature: 20.0°C (68°F)
Dewpoint: 14.4°C (58°F) [RH = 70%]
Pressure (altimeter): 29.99 inches Hg (1015.7 mb)
[Sea-level pressure: 1015.6 mb]
Winds: from the WNW (300 degrees) at 15 MPH (13 knots; 6.8 m/s)
Visibility: 10 or more miles (16+ km)
Ceiling: at least 12,000 feet AGL
Clouds: few clouds at 1000 feet AGL
scattered clouds at 20000 feet AGL
Weather: no significant weather observed at this time